Abuja, Nigeria

2:43 PM WAT on July 22, 2014 (GMT +0100)
Nnamdi Azikiwe International (DNAA) Elev 1122 ft | 9.01 °N, 7.26 °E | Change Station

Current weather conditions updated 43 minutes ago

Partly Cloudy
Partly Cloudy
82 °F
Feels Like 85 °F
N
8
Wind Variable Wind from West

Today is forecast to be Warmer than yesterday. Thunderstorms.

Today
High -- | Low -- °F
--% Chance of Precip.
Yesterday
High -- | Low -- °F
Precip. -- in
6:21 AM 6:55 PM
Waning Crescent, 17% visible
Pressure 30.01 in
Visibility 6.2 miles
Clouds Mostly Cloudy 1100 ft
Few 1900 ft
Heat Index 85 °F
Dew Point 68 °F
Humidity 62%
Rainfall 0.00 in
Snow Depth Not available.
UV 14 out of 12
Pollen Not available.
Air Quality Not available.
Flu Activity Not available.
METAR DNAA 221300Z 27007KT 230V290 9999 BKN011 FEW019CB 28/20 Q1016 NOSIG

More Conditions Fewer Conditions

Pressure 30.01 in
Visibility 6.2 miles
Clouds Mostly Cloudy 1100 ft
Few 1900 ft
Heat Index 85 °F
Dew Point 68 °F
Humidity 62%
Rainfall 0.00 in
Snow Depth Not available.
UV 14 out of 12
Pollen Not available.
Air Quality Not available.
Flu Activity Not available.
METAR DNAA 221300Z 27007KT 230V290 9999 BKN011 FEW019CB 28/20 Q1016 NOSIG

More Conditions Fewer Conditions

10-Day Weather Forecast

LIGHTNING

Thunderstorms are forecast for your area. Cloud conditions might be right for producing strikes in the next few days, though lightning itself cannot be forecasted.

Lightning is a visible electrical discharge produced by a thunderstorm, based on the build up of oppositely charged particles within a cloud and from cloud to ground.

Know how to stay safe in a lightning storm.

Check out these Lightning WunderPhotos!

Almanac

Astronomy

Jul. 22, 2014 Rise Set
Actual Time 6:21 AM WAT 6:55 PM WAT
Civil Twilight 5:58 AM WAT 7:18 PM WAT
Nautical Twilight 5:32 AM WAT 7:44 PM WAT
Astronomical Twilight 5:05 AM WAT 8:11 PM WAT
Moon 2:34 AM WAT 3:24 PM WAT
Length of Visible Light 13h 19m
Length of Day
12h 34m
Tomorrow will be 0m 19s shorter.
Waning Crescent, 17% of the Moon is Illuminated
Today
Waning Crescent
Jul 26
New
Aug 3
First Quarter
Aug 10
Full
Aug 17
Last Quarter

Yesterday's Extremes

Country Highs Country Lows

Community

WunderPhotos

Upload Photos

1,736,229 photos uploaded!

Nearby

Snow Depth

Not available.

Earthquake Activity

City Distance Mag. Time & Date
No recent earthquake activity has been reported nearby.
Minimum magnitude displayed is 2.5.

Coastal Water Temperatures

Place Temperature
No Stations Reporting

Nearby Weather Stations

There are no personal weather stations in this area.